sensor_id;sensor_type;location;lat;lon;timestamp;P1;durP1;ratioP1;P2;durP2;ratioP2
46643;SDS011;32371;51.032;5.816;2022-09-27T00:00:14;4.88;;;0.77;;
46643;SDS011;32371;51.032;5.816;2022-09-27T00:02:39;3.95;;;0.85;;
46643;SDS011;32371;51.032;5.816;2022-09-27T00:05:05;0.75;;;0.40;;
46643;SDS011;32371;51.032;5.816;2022-09-27T00:07:30;2.80;;;0.63;;
46643;SDS011;32371;51.032;5.816;2022-09-27T00:09:56;0.82;;;0.60;;
46643;SDS011;32371;51.032;5.816;2022-09-27T00:12:21;1.90;;;0.75;;
46643;SDS011;32371;51.032;5.816;2022-09-27T00:14:47;1.52;;;0.63;;
46643;SDS011;32371;51.032;5.816;2022-09-27T00:17:12;2.13;;;0.52;;
46643;SDS011;32371;51.032;5.816;2022-09-27T00:19:38;0.60;;;0.60;;
46643;SDS011;32371;51.032;5.816;2022-09-27T00:22:03;2.28;;;0.70;;
46643;SDS011;32371;51.032;5.816;2022-09-27T00:24:28;7.18;;;0.80;;
46643;SDS011;32371;51.032;5.816;2022-09-27T00:26:55;1.85;;;0.55;;
46643;SDS011;32371;51.032;5.816;2022-09-27T00:29:21;6.90;;;0.70;;
46643;SDS011;32371;51.032;5.816;2022-09-27T00:31:46;7.65;;;0.50;;
46643;SDS011;32371;51.032;5.816;2022-09-27T00:34:17;3.53;;;0.70;;
46643;SDS011;32371;51.032;5.816;2022-09-27T00:36:47;4.10;;;1.08;;
46643;SDS011;32371;51.032;5.816;2022-09-27T00:39:13;5.85;;;0.70;;
46643;SDS011;32371;51.032;5.816;2022-09-27T00:41:39;1.90;;;0.40;;
46643;SDS011;32371;51.032;5.816;2022-09-27T00:46:50;3.22;;;1.17;;
46643;SDS011;32371;51.032;5.816;2022-09-27T00:49:37;4.28;;;0.63;;
46643;SDS011;32371;51.032;5.816;2022-09-27T00:52:07;2.47;;;0.40;;
46643;SDS011;32371;51.032;5.816;2022-09-27T00:54:35;3.17;;;0.60;;
46643;SDS011;32371;51.032;5.816;2022-09-27T00:57:01;8.27;;;0.50;;
46643;SDS011;32371;51.032;5.816;2022-09-27T00:59:29;2.58;;;0.85;;
46643;SDS011;32371;51.032;5.816;2022-09-27T01:01:58;0.82;;;0.50;;
46643;SDS011;32371;51.032;5.816;2022-09-27T01:04:24;0.40;;;0.40;;
46643;SDS011;32371;51.032;5.816;2022-09-27T01:06:51;4.18;;;0.70;;
46643;SDS011;32371;51.032;5.816;2022-09-27T01:09:16;0.40;;;0.40;;
46643;SDS011;32371;51.032;5.816;2022-09-27T01:17:33;1.17;;;0.57;;
46643;SDS011;32371;51.032;5.816;2022-09-27T01:22:59;2.58;;;0.20;;
46643;SDS011;32371;51.032;5.816;2022-09-27T01:30:53;0.30;;;0.30;;
46643;SDS011;32371;51.032;5.816;2022-09-27T01:33:25;0.43;;;0.35;;
46643;SDS011;32371;51.032;5.816;2022-09-27T01:38:36;3.13;;;0.40;;
46643;SDS011;32371;51.032;5.816;2022-09-27T01:41:05;1.95;;;0.30;;
46643;SDS011;32371;51.032;5.816;2022-09-27T01:46:35;2.08;;;0.30;;
46643;SDS011;32371;51.032;5.816;2022-09-27T01:49:06;3.45;;;0.40;;
46643;SDS011;32371;51.032;5.816;2022-09-27T01:51:36;4.70;;;0.70;;
46643;SDS011;32371;51.032;5.816;2022-09-27T01:54:05;1.02;;;0.40;;
46643;SDS011;32371;51.032;5.816;2022-09-27T01:56:36;1.00;;;0.60;;
46643;SDS011;32371;51.032;5.816;2022-09-27T01:59:13;0.30;;;0.30;;
46643;SDS011;32371;51.032;5.816;2022-09-27T02:01:42;2.38;;;0.50;;
46643;SDS011;32371;51.032;5.816;2022-09-27T02:04:09;2.40;;;0.45;;
46643;SDS011;32371;51.032;5.816;2022-09-27T02:06:38;0.30;;;0.30;;
46643;SDS011;32371;51.032;5.816;2022-09-27T02:09:10;1.00;;;0.43;;
46643;SDS011;32371;51.032;5.816;2022-09-27T02:11:38;2.90;;;0.30;;
46643;SDS011;32371;51.032;5.816;2022-09-27T02:14:30;4.55;;;0.50;;
46643;SDS011;32371;51.032;5.816;2022-09-27T02:17:03;1.38;;;0.88;;
46643;SDS011;32371;51.032;5.816;2022-09-27T02:23:22;7.07;;;0.60;;
46643;SDS011;32371;51.032;5.816;2022-09-27T02:25:48;0.85;;;0.40;;
46643;SDS011;32371;51.032;5.816;2022-09-27T02:30:58;1.13;;;0.30;;
46643;SDS011;32371;51.032;5.816;2022-09-27T02:33:28;1.35;;;0.30;;
46643;SDS011;32371;51.032;5.816;2022-09-27T02:35:57;0.17;;;0.17;;
46643;SDS011;32371;51.032;5.816;2022-09-27T02:38:22;1.13;;;0.40;;
46643;SDS011;32371;51.032;5.816;2022-09-27T02:40:48;2.42;;;0.38;;
46643;SDS011;32371;51.032;5.816;2022-09-27T02:43:14;1.75;;;0.43;;
46643;SDS011;32371;51.032;5.816;2022-09-27T02:49:02;2.03;;;0.52;;
46643;SDS011;32371;51.032;5.816;2022-09-27T03:04:52;8.07;;;0.80;;
46643;SDS011;32371;51.032;5.816;2022-09-27T03:07:20;1.40;;;0.45;;
46643;SDS011;32371;51.032;5.816;2022-09-27T03:09:47;1.58;;;0.40;;
46643;SDS011;32371;51.032;5.816;2022-09-27T03:12:14;2.20;;;0.40;;
46643;SDS011;32371;51.032;5.816;2022-09-27T03:14:46;0.35;;;0.08;;
46643;SDS011;32371;51.032;5.816;2022-09-27T03:17:12;0.60;;;0.30;;
46643;SDS011;32371;51.032;5.816;2022-09-27T03:19:38;0.10;;;0.10;;
46643;SDS011;32371;51.032;5.816;2022-09-27T03:22:03;2.35;;;0.35;;
46643;SDS011;32371;51.032;5.816;2022-09-27T03:24:28;0.10;;;0.10;;
46643;SDS011;32371;51.032;5.816;2022-09-27T03:26:54;1.27;;;0.32;;
46643;SDS011;32371;51.032;5.816;2022-09-27T03:29:19;1.23;;;0.40;;
46643;SDS011;32371;51.032;5.816;2022-09-27T03:31:44;2.08;;;0.28;;
46643;SDS011;32371;51.032;5.816;2022-09-27T03:34:10;0.20;;;0.20;;
46643;SDS011;32371;51.032;5.816;2022-09-27T03:36:35;1.27;;;0.45;;
46643;SDS011;32371;51.032;5.816;2022-09-27T03:39:00;0.20;;;0.20;;
46643;SDS011;32371;51.032;5.816;2022-09-27T03:41:26;1.58;;;0.22;;
46643;SDS011;32371;51.032;5.816;2022-09-27T03:43:51;3.20;;;0.95;;
46643;SDS011;32371;51.032;5.816;2022-09-27T03:46:16;2.45;;;0.45;;
46643;SDS011;32371;51.032;5.816;2022-09-27T03:48:42;2.72;;;0.57;;
46643;SDS011;32371;51.032;5.816;2022-09-27T03:51:07;1.20;;;0.20;;
46643;SDS011;32371;51.032;5.816;2022-09-27T03:53:36;2.28;;;0.22;;
46643;SDS011;32371;51.032;5.816;2022-09-27T03:56:01;3.17;;;0.30;;
46643;SDS011;32371;51.032;5.816;2022-09-27T03:58:27;4.28;;;0.32;;
46643;SDS011;32371;51.032;5.816;2022-09-27T04:00:52;1.95;;;0.50;;
46643;SDS011;32371;51.032;5.816;2022-09-27T04:03:17;5.22;;;0.57;;
46643;SDS011;32371;51.032;5.816;2022-09-27T04:05:43;1.05;;;0.30;;
46643;SDS011;32371;51.032;5.816;2022-09-27T04:08:09;1.02;;;0.38;;
46643;SDS011;32371;51.032;5.816;2022-09-27T04:10:35;0.57;;;0.30;;
46643;SDS011;32371;51.032;5.816;2022-09-27T04:13:01;0.40;;;0.35;;
46643;SDS011;32371;51.032;5.816;2022-09-27T04:15:26;0.65;;;0.30;;
46643;SDS011;32371;51.032;5.816;2022-09-27T04:17:52;2.35;;;0.50;;
46643;SDS011;32371;51.032;5.816;2022-09-27T04:20:17;1.85;;;0.40;;
46643;SDS011;32371;51.032;5.816;2022-09-27T04:22:43;1.73;;;0.43;;
46643;SDS011;32371;51.032;5.816;2022-09-27T04:25:09;1.27;;;0.35;;
46643;SDS011;32371;51.032;5.816;2022-09-27T04:27:35;0.65;;;0.30;;
46643;SDS011;32371;51.032;5.816;2022-09-27T04:30:00;2.90;;;0.50;;
46643;SDS011;32371;51.032;5.816;2022-09-27T04:32:26;3.92;;;0.52;;
46643;SDS011;32371;51.032;5.816;2022-09-27T04:34:51;0.98;;;0.50;;
46643;SDS011;32371;51.032;5.816;2022-09-27T04:37:35;0.70;;;0.40;;
46643;SDS011;32371;51.032;5.816;2022-09-27T04:40:02;0.60;;;0.60;;
46643;SDS011;32371;51.032;5.816;2022-09-27T04:42:28;1.20;;;0.40;;
46643;SDS011;32371;51.032;5.816;2022-09-27T04:44:53;1.17;;;0.70;;
46643;SDS011;32371;51.032;5.816;2022-09-27T04:47:19;3.85;;;0.40;;
46643;SDS011;32371;51.032;5.816;2022-09-27T04:49:45;1.48;;;0.60;;
46643;SDS011;32371;51.032;5.816;2022-09-27T04:52:11;3.08;;;0.80;;
46643;SDS011;32371;51.032;5.816;2022-09-27T04:54:36;0.52;;;0.50;;
46643;SDS011;32371;51.032;5.816;2022-09-27T04:57:02;1.70;;;0.60;;
46643;SDS011;32371;51.032;5.816;2022-09-27T04:59:27;0.93;;;0.38;;
46643;SDS011;32371;51.032;5.816;2022-09-27T05:01:53;1.42;;;0.50;;
46643;SDS011;32371;51.032;5.816;2022-09-27T05:04:18;1.58;;;0.30;;
46643;SDS011;32371;51.032;5.816;2022-09-27T05:06:44;4.05;;;0.80;;
46643;SDS011;32371;51.032;5.816;2022-09-27T05:09:09;0.60;;;0.20;;
46643;SDS011;32371;51.032;5.816;2022-09-27T05:11:35;0.50;;;0.30;;
46643;SDS011;32371;51.032;5.816;2022-09-27T05:14:02;5.05;;;0.75;;
46643;SDS011;32371;51.032;5.816;2022-09-27T05:16:28;2.25;;;0.20;;
46643;SDS011;32371;51.032;5.816;2022-09-27T05:18:53;2.17;;;0.40;;
46643;SDS011;32371;51.032;5.816;2022-09-27T05:21:19;1.40;;;0.35;;
46643;SDS011;32371;51.032;5.816;2022-09-27T05:23:44;1.33;;;0.28;;
46643;SDS011;32371;51.032;5.816;2022-09-27T05:26:09;0.95;;;0.25;;
46643;SDS011;32371;51.032;5.816;2022-09-27T05:28:35;0.52;;;0.43;;
46643;SDS011;32371;51.032;5.816;2022-09-27T05:31:01;0.90;;;0.20;;
46643;SDS011;32371;51.032;5.816;2022-09-27T05:33:26;1.67;;;0.25;;
46643;SDS011;32371;51.032;5.816;2022-09-27T05:35:56;0.47;;;0.20;;
46643;SDS011;32371;51.032;5.816;2022-09-27T05:38:22;0.90;;;0.20;;
46643;SDS011;32371;51.032;5.816;2022-09-27T05:40:47;0.80;;;0.10;;
46643;SDS011;32371;51.032;5.816;2022-09-27T05:43:15;4.22;;;0.38;;
46643;SDS011;32371;51.032;5.816;2022-09-27T05:45:41;0.15;;;0.15;;
46643;SDS011;32371;51.032;5.816;2022-09-27T05:48:08;2.22;;;0.30;;
46643;SDS011;32371;51.032;5.816;2022-09-27T05:50:33;3.13;;;0.80;;
46643;SDS011;32371;51.032;5.816;2022-09-27T05:52:59;2.50;;;0.40;;
46643;SDS011;32371;51.032;5.816;2022-09-27T05:55:24;0.65;;;0.28;;
46643;SDS011;32371;51.032;5.816;2022-09-27T05:57:53;2.38;;;0.40;;
46643;SDS011;32371;51.032;5.816;2022-09-27T06:00:19;3.63;;;0.28;;
46643;SDS011;32371;51.032;5.816;2022-09-27T06:02:44;0.20;;;0.20;;
46643;SDS011;32371;51.032;5.816;2022-09-27T06:05:17;0.30;;;0.30;;
46643;SDS011;32371;51.032;5.816;2022-09-27T06:07:43;1.27;;;0.20;;
46643;SDS011;32371;51.032;5.816;2022-09-27T06:10:09;2.75;;;0.40;;
46643;SDS011;32371;51.032;5.816;2022-09-27T06:12:35;0.90;;;0.25;;
46643;SDS011;32371;51.032;5.816;2022-09-27T06:15:00;0.77;;;0.22;;
46643;SDS011;32371;51.032;5.816;2022-09-27T06:17:25;0.77;;;0.13;;
46643;SDS011;32371;51.032;5.816;2022-09-27T06:19:51;0.32;;;0.20;;
46643;SDS011;32371;51.032;5.816;2022-09-27T06:22:16;0.63;;;0.30;;
46643;SDS011;32371;51.032;5.816;2022-09-27T06:24:41;1.52;;;0.17;;
46643;SDS011;32371;51.032;5.816;2022-09-27T06:27:07;0.45;;;0.40;;
46643;SDS011;32371;51.032;5.816;2022-09-27T06:29:32;0.75;;;0.20;;
46643;SDS011;32371;51.032;5.816;2022-09-27T06:31:59;2.28;;;0.50;;
46643;SDS011;32371;51.032;5.816;2022-09-27T06:34:24;0.85;;;0.20;;
46643;SDS011;32371;51.032;5.816;2022-09-27T06:36:49;2.08;;;0.20;;
46643;SDS011;32371;51.032;5.816;2022-09-27T06:39:15;0.30;;;0.10;;
46643;SDS011;32371;51.032;5.816;2022-09-27T06:41:40;1.95;;;0.30;;
46643;SDS011;32371;51.032;5.816;2022-09-27T06:44:05;1.35;;;0.40;;
46643;SDS011;32371;51.032;5.816;2022-09-27T06:46:31;1.23;;;0.40;;
46643;SDS011;32371;51.032;5.816;2022-09-27T06:48:56;2.30;;;0.38;;
46643;SDS011;32371;51.032;5.816;2022-09-27T06:51:22;0.82;;;0.30;;
46643;SDS011;32371;51.032;5.816;2022-09-27T06:53:47;1.40;;;0.40;;
46643;SDS011;32371;51.032;5.816;2022-09-27T06:56:13;0.45;;;0.20;;
46643;SDS011;32371;51.032;5.816;2022-09-27T06:58:38;0.55;;;0.20;;
46643;SDS011;32371;51.032;5.816;2022-09-27T07:01:26;0.98;;;0.20;;
46643;SDS011;32371;51.032;5.816;2022-09-27T07:03:52;6.43;;;0.43;;
46643;SDS011;32371;51.032;5.816;2022-09-27T07:06:18;0.43;;;0.20;;
46643;SDS011;32371;51.032;5.816;2022-09-27T07:08:52;2.85;;;0.35;;
46643;SDS011;32371;51.032;5.816;2022-09-27T07:11:18;1.70;;;0.28;;
46643;SDS011;32371;51.032;5.816;2022-09-27T07:13:44;0.98;;;0.40;;
46643;SDS011;32371;51.032;5.816;2022-09-27T07:16:10;2.42;;;0.60;;
46643;SDS011;32371;51.032;5.816;2022-09-27T07:18:37;1.15;;;0.32;;
46643;SDS011;32371;51.032;5.816;2022-09-27T07:21:03;2.00;;;0.50;;
46643;SDS011;32371;51.032;5.816;2022-09-27T07:23:29;1.85;;;0.40;;
46643;SDS011;32371;51.032;5.816;2022-09-27T07:25:54;1.75;;;0.47;;
46643;SDS011;32371;51.032;5.816;2022-09-27T07:28:20;1.40;;;0.65;;
46643;SDS011;32371;51.032;5.816;2022-09-27T07:30:45;1.08;;;0.73;;
46643;SDS011;32371;51.032;5.816;2022-09-27T07:33:10;1.50;;;0.63;;
46643;SDS011;32371;51.032;5.816;2022-09-27T07:35:39;0.52;;;0.52;;
46643;SDS011;32371;51.032;5.816;2022-09-27T07:38:05;3.78;;;0.70;;
46643;SDS011;32371;51.032;5.816;2022-09-27T07:40:32;1.65;;;1.00;;
46643;SDS011;32371;51.032;5.816;2022-09-27T07:43:00;2.15;;;0.70;;
46643;SDS011;32371;51.032;5.816;2022-09-27T07:45:25;2.05;;;0.68;;
46643;SDS011;32371;51.032;5.816;2022-09-27T07:47:51;1.88;;;0.63;;
46643;SDS011;32371;51.032;5.816;2022-09-27T07:50:17;2.35;;;0.98;;
46643;SDS011;32371;51.032;5.816;2022-09-27T07:52:43;3.35;;;0.80;;
46643;SDS011;32371;51.032;5.816;2022-09-27T07:55:10;1.65;;;0.68;;
46643;SDS011;32371;51.032;5.816;2022-09-27T07:57:37;0.98;;;0.70;;
46643;SDS011;32371;51.032;5.816;2022-09-27T08:00:03;2.55;;;0.70;;
46643;SDS011;32371;51.032;5.816;2022-09-27T08:02:30;0.98;;;0.70;;
46643;SDS011;32371;51.032;5.816;2022-09-27T08:04:56;1.55;;;0.93;;
46643;SDS011;32371;51.032;5.816;2022-09-27T08:07:25;0.80;;;0.70;;
46643;SDS011;32371;51.032;5.816;2022-09-27T08:09:51;3.05;;;0.82;;
46643;SDS011;32371;51.032;5.816;2022-09-27T08:12:16;3.08;;;0.90;;
46643;SDS011;32371;51.032;5.816;2022-09-27T08:14:42;4.95;;;0.75;;
46643;SDS011;32371;51.032;5.816;2022-09-27T08:17:11;3.67;;;0.57;;
46643;SDS011;32371;51.032;5.816;2022-09-27T08:19:37;3.08;;;0.88;;
46643;SDS011;32371;51.032;5.816;2022-09-27T08:22:03;0.70;;;0.70;;
46643;SDS011;32371;51.032;5.816;2022-09-27T08:24:28;4.13;;;1.23;;
46643;SDS011;32371;51.032;5.816;2022-09-27T08:26:53;1.35;;;0.85;;
46643;SDS011;32371;51.032;5.816;2022-09-27T08:29:19;1.30;;;0.85;;
46643;SDS011;32371;51.032;5.816;2022-09-27T08:31:44;0.95;;;0.85;;
46643;SDS011;32371;51.032;5.816;2022-09-27T08:34:09;0.70;;;0.70;;
46643;SDS011;32371;51.032;5.816;2022-09-27T08:36:35;11.68;;;1.02;;
46643;SDS011;32371;51.032;5.816;2022-09-27T08:39:01;1.38;;;0.90;;
46643;SDS011;32371;51.032;5.816;2022-09-27T08:41:45;0.52;;;0.52;;
46643;SDS011;32371;51.032;5.816;2022-09-27T08:49:39;1.08;;;0.70;;
46643;SDS011;32371;51.032;5.816;2022-09-27T08:52:33;3.92;;;1.27;;
46643;SDS011;32371;51.032;5.816;2022-09-27T08:55:05;1.70;;;0.50;;
46643;SDS011;32371;51.032;5.816;2022-09-27T08:57:41;2.15;;;0.75;;
46643;SDS011;32371;51.032;5.816;2022-09-27T09:00:10;1.13;;;0.82;;
46643;SDS011;32371;51.032;5.816;2022-09-27T09:02:36;1.52;;;0.90;;
46643;SDS011;32371;51.032;5.816;2022-09-27T09:05:05;2.83;;;0.85;;
46643;SDS011;32371;51.032;5.816;2022-09-27T09:07:46;1.73;;;0.80;;
46643;SDS011;32371;51.032;5.816;2022-09-27T09:13:25;2.50;;;0.95;;
46643;SDS011;32371;51.032;5.816;2022-09-27T09:21:45;2.40;;;0.93;;
46643;SDS011;32371;51.032;5.816;2022-09-27T09:24:24;3.35;;;0.98;;
46643;SDS011;32371;51.032;5.816;2022-09-27T09:32:37;3.55;;;0.65;;
46643;SDS011;32371;51.032;5.816;2022-09-27T09:35:12;1.92;;;0.90;;
46643;SDS011;32371;51.032;5.816;2022-09-27T09:38:02;1.08;;;0.98;;
46643;SDS011;32371;51.032;5.816;2022-09-27T09:40:31;0.70;;;0.70;;
46643;SDS011;32371;51.032;5.816;2022-09-27T09:43:21;1.10;;;1.00;;
46643;SDS011;32371;51.032;5.816;2022-09-27T09:46:17;1.63;;;1.52;;
46643;SDS011;32371;51.032;5.816;2022-09-27T09:48:49;3.83;;;1.52;;
46643;SDS011;32371;51.032;5.816;2022-09-27T09:51:31;2.92;;;1.02;;
46643;SDS011;32371;51.032;5.816;2022-09-27T09:56:37;1.80;;;1.15;;
46643;SDS011;32371;51.032;5.816;2022-09-27T09:59:10;5.40;;;1.08;;
46643;SDS011;32371;51.032;5.816;2022-09-27T10:01:40;1.00;;;0.90;;
46643;SDS011;32371;51.032;5.816;2022-09-27T10:04:18;0.65;;;0.60;;
46643;SDS011;32371;51.032;5.816;2022-09-27T10:06:44;1.75;;;1.27;;
46643;SDS011;32371;51.032;5.816;2022-09-27T10:09:11;2.20;;;1.30;;
46643;SDS011;32371;51.032;5.816;2022-09-27T10:11:39;3.40;;;0.73;;
46643;SDS011;32371;51.032;5.816;2022-09-27T10:14:08;2.67;;;0.80;;
46643;SDS011;32371;51.032;5.816;2022-09-27T10:16:36;1.52;;;0.95;;
46643;SDS011;32371;51.032;5.816;2022-09-27T10:19:02;4.32;;;1.05;;
46643;SDS011;32371;51.032;5.816;2022-09-27T10:21:29;1.42;;;1.17;;
46643;SDS011;32371;51.032;5.816;2022-09-27T10:24:09;2.75;;;0.98;;
46643;SDS011;32371;51.032;5.816;2022-09-27T10:26:35;1.42;;;0.98;;
46643;SDS011;32371;51.032;5.816;2022-09-27T10:29:13;2.33;;;1.02;;
46643;SDS011;32371;51.032;5.816;2022-09-27T10:31:38;4.85;;;1.02;;
46643;SDS011;32371;51.032;5.816;2022-09-27T10:34:15;0.68;;;0.65;;
46643;SDS011;32371;51.032;5.816;2022-09-27T10:39:47;1.70;;;1.17;;
46643;SDS011;32371;51.032;5.816;2022-09-27T10:42:34;1.25;;;0.55;;
46643;SDS011;32371;51.032;5.816;2022-09-27T10:47:51;1.45;;;0.57;;
46643;SDS011;32371;51.032;5.816;2022-09-27T10:50:18;1.73;;;0.63;;
46643;SDS011;32371;51.032;5.816;2022-09-27T10:52:46;0.93;;;0.60;;
46643;SDS011;32371;51.032;5.816;2022-09-27T10:55:22;3.72;;;0.50;;
46643;SDS011;32371;51.032;5.816;2022-09-27T10:57:49;1.88;;;0.60;;
46643;SDS011;32371;51.032;5.816;2022-09-27T11:00:33;4.95;;;0.93;;
46643;SDS011;32371;51.032;5.816;2022-09-27T11:05:30;0.50;;;0.50;;
46643;SDS011;32371;51.032;5.816;2022-09-27T11:07:59;0.85;;;0.60;;
46643;SDS011;32371;51.032;5.816;2022-09-27T11:10:31;1.42;;;0.40;;
46643;SDS011;32371;51.032;5.816;2022-09-27T11:13:12;3.55;;;0.55;;
46643;SDS011;32371;51.032;5.816;2022-09-27T11:32:29;2.10;;;0.20;;
46643;SDS011;32371;51.032;5.816;2022-09-27T11:37:45;2.17;;;0.40;;
46643;SDS011;32371;51.032;5.816;2022-09-27T11:48:37;0.75;;;0.28;;
46643;SDS011;32371;51.032;5.816;2022-09-27T11:56:41;0.20;;;0.20;;
46643;SDS011;32371;51.032;5.816;2022-09-27T12:10:41;1.55;;;0.30;;
46643;SDS011;32371;51.032;5.816;2022-09-27T12:13:12;1.05;;;0.30;;
46643;SDS011;32371;51.032;5.816;2022-09-27T12:15:40;0.00;;;0.00;;
46643;SDS011;32371;51.032;5.816;2022-09-27T12:20:53;0.30;;;0.15;;
46643;SDS011;32371;51.032;5.816;2022-09-27T12:23:25;0.40;;;0.15;;
46643;SDS011;32371;51.032;5.816;2022-09-27T12:26:02;1.20;;;0.10;;
46643;SDS011;32371;51.032;5.816;2022-09-27T12:30:58;0.20;;;0.20;;
46643;SDS011;32371;51.032;5.816;2022-09-27T12:36:04;1.38;;;0.15;;
46643;SDS011;32371;51.032;5.816;2022-09-27T12:41:02;2.45;;;0.30;;
46643;SDS011;32371;51.032;5.816;2022-09-27T12:43:30;0.85;;;0.43;;
46643;SDS011;32371;51.032;5.816;2022-09-27T12:46:15;2.40;;;0.40;;
46643;SDS011;32371;51.032;5.816;2022-09-27T12:48:51;0.52;;;0.22;;
46643;SDS011;32371;51.032;5.816;2022-09-27T12:51:21;2.75;;;0.50;;
46643;SDS011;32371;51.032;5.816;2022-09-27T12:54:22;0.98;;;0.43;;
46643;SDS011;32371;51.032;5.816;2022-09-27T13:13:40;2.28;;;0.40;;
46643;SDS011;32371;51.032;5.816;2022-09-27T13:16:06;2.10;;;0.52;;
46643;SDS011;32371;51.032;5.816;2022-09-27T13:21:07;2.00;;;0.40;;
46643;SDS011;32371;51.032;5.816;2022-09-27T13:26:03;2.60;;;0.50;;
46643;SDS011;32371;51.032;5.816;2022-09-27T13:31:11;3.63;;;0.88;;
46643;SDS011;32371;51.032;5.816;2022-09-27T13:41:32;2.35;;;0.57;;
46643;SDS011;32371;51.032;5.816;2022-09-27T13:46:57;2.53;;;0.28;;
46643;SDS011;32371;51.032;5.816;2022-09-27T13:52:01;0.88;;;0.28;;
46643;SDS011;32371;51.032;5.816;2022-09-27T13:57:02;2.72;;;0.50;;
46643;SDS011;32371;51.032;5.816;2022-09-27T13:59:41;2.55;;;0.80;;
46643;SDS011;32371;51.032;5.816;2022-09-27T14:02:22;1.45;;;0.43;;
46643;SDS011;32371;51.032;5.816;2022-09-27T14:04:50;1.13;;;0.88;;
46643;SDS011;32371;51.032;5.816;2022-09-27T14:07:16;2.20;;;0.65;;
46643;SDS011;32371;51.032;5.816;2022-09-27T14:09:44;1.10;;;0.30;;
46643;SDS011;32371;51.032;5.816;2022-09-27T14:12:19;5.50;;;0.50;;
46643;SDS011;32371;51.032;5.816;2022-09-27T14:14:47;0.47;;;0.22;;
46643;SDS011;32371;51.032;5.816;2022-09-27T14:17:14;0.73;;;0.38;;
46643;SDS011;32371;51.032;5.816;2022-09-27T14:19:42;1.75;;;0.15;;
46643;SDS011;32371;51.032;5.816;2022-09-27T14:29:45;0.95;;;0.30;;
46643;SDS011;32371;51.032;5.816;2022-09-27T14:32:17;1.10;;;0.40;;
46643;SDS011;32371;51.032;5.816;2022-09-27T14:35:01;2.03;;;0.45;;
46643;SDS011;32371;51.032;5.816;2022-09-27T14:37:31;0.82;;;0.50;;
46643;SDS011;32371;51.032;5.816;2022-09-27T14:40:05;0.85;;;0.80;;
46643;SDS011;32371;51.032;5.816;2022-09-27T14:42:43;2.80;;;0.45;;
46643;SDS011;32371;51.032;5.816;2022-09-27T14:45:18;1.05;;;0.35;;
46643;SDS011;32371;51.032;5.816;2022-09-27T14:48:01;0.73;;;0.43;;
46643;SDS011;32371;51.032;5.816;2022-09-27T14:50:40;5.20;;;0.52;;
46643;SDS011;32371;51.032;5.816;2022-09-27T14:53:18;1.77;;;0.40;;
46643;SDS011;32371;51.032;5.816;2022-09-27T14:55:46;1.15;;;0.52;;
46643;SDS011;32371;51.032;5.816;2022-09-27T14:58:12;3.72;;;0.47;;
46643;SDS011;32371;51.032;5.816;2022-09-27T15:00:39;4.13;;;0.65;;
46643;SDS011;32371;51.032;5.816;2022-09-27T15:03:11;0.40;;;0.40;;
46643;SDS011;32371;51.032;5.816;2022-09-27T15:05:40;1.75;;;0.50;;
46643;SDS011;32371;51.032;5.816;2022-09-27T15:08:08;3.22;;;0.60;;
46643;SDS011;32371;51.032;5.816;2022-09-27T15:10:35;2.80;;;0.55;;
46643;SDS011;32371;51.032;5.816;2022-09-27T15:13:02;3.45;;;0.55;;
46643;SDS011;32371;51.032;5.816;2022-09-27T15:15:30;0.85;;;0.40;;
46643;SDS011;32371;51.032;5.816;2022-09-27T15:18:01;1.95;;;0.60;;
46643;SDS011;32371;51.032;5.816;2022-09-27T15:20:33;0.57;;;0.50;;
46643;SDS011;32371;51.032;5.816;2022-09-27T15:22:59;0.95;;;0.80;;
46643;SDS011;32371;51.032;5.816;2022-09-27T15:28:03;3.30;;;0.52;;
46643;SDS011;32371;51.032;5.816;2022-09-27T15:30:35;0.68;;;0.50;;
46643;SDS011;32371;51.032;5.816;2022-09-27T15:33:02;0.65;;;0.32;;
46643;SDS011;32371;51.032;5.816;2022-09-27T15:35:29;1.20;;;0.50;;
46643;SDS011;32371;51.032;5.816;2022-09-27T15:41:13;7.38;;;1.27;;
46643;SDS011;32371;51.032;5.816;2022-09-27T15:46:37;0.80;;;0.60;;
46643;SDS011;32371;51.032;5.816;2022-09-27T15:51:57;1.75;;;0.80;;
46643;SDS011;32371;51.032;5.816;2022-09-27T15:54:25;1.85;;;0.70;;
46643;SDS011;32371;51.032;5.816;2022-09-27T15:56:54;1.15;;;0.50;;
46643;SDS011;32371;51.032;5.816;2022-09-27T15:59:21;2.47;;;0.65;;
46643;SDS011;32371;51.032;5.816;2022-09-27T16:01:54;2.58;;;1.02;;
46643;SDS011;32371;51.032;5.816;2022-09-27T16:04:24;3.72;;;1.20;;
46643;SDS011;32371;51.032;5.816;2022-09-27T16:06:50;7.20;;;2.03;;
46643;SDS011;32371;51.032;5.816;2022-09-27T16:09:17;6.45;;;2.35;;
46643;SDS011;32371;51.032;5.816;2022-09-27T16:11:44;14.05;;;3.40;;
46643;SDS011;32371;51.032;5.816;2022-09-27T16:14:10;11.45;;;2.97;;
46643;SDS011;32371;51.032;5.816;2022-09-27T16:16:40;25.17;;;6.25;;
46643;SDS011;32371;51.032;5.816;2022-09-27T16:19:07;30.90;;;8.68;;
46643;SDS011;32371;51.032;5.816;2022-09-27T16:21:32;13.27;;;4.20;;
46643;SDS011;32371;51.032;5.816;2022-09-27T16:23:58;5.60;;;2.08;;
46643;SDS011;32371;51.032;5.816;2022-09-27T16:26:23;3.67;;;1.25;;
46643;SDS011;32371;51.032;5.816;2022-09-27T16:28:48;3.55;;;1.38;;
46643;SDS011;32371;51.032;5.816;2022-09-27T16:31:14;7.43;;;0.82;;
46643;SDS011;32371;51.032;5.816;2022-09-27T16:33:41;2.00;;;0.57;;
46643;SDS011;32371;51.032;5.816;2022-09-27T16:36:06;2.58;;;0.90;;
46643;SDS011;32371;51.032;5.816;2022-09-27T16:38:40;3.03;;;1.20;;
46643;SDS011;32371;51.032;5.816;2022-09-27T16:41:06;5.50;;;1.05;;
46643;SDS011;32371;51.032;5.816;2022-09-27T16:43:31;6.55;;;1.58;;
46643;SDS011;32371;51.032;5.816;2022-09-27T16:46:04;2.97;;;0.73;;
46643;SDS011;32371;51.032;5.816;2022-09-27T16:48:32;2.65;;;1.10;;
46643;SDS011;32371;51.032;5.816;2022-09-27T16:51:01;3.42;;;1.10;;
46643;SDS011;32371;51.032;5.816;2022-09-27T16:53:46;2.10;;;0.80;;
46643;SDS011;32371;51.032;5.816;2022-09-27T16:56:12;5.78;;;1.60;;
46643;SDS011;32371;51.032;5.816;2022-09-27T16:58:37;3.00;;;1.00;;
46643;SDS011;32371;51.032;5.816;2022-09-27T17:01:03;8.43;;;0.85;;
46643;SDS011;32371;51.032;5.816;2022-09-27T17:03:28;3.10;;;0.90;;
46643;SDS011;32371;51.032;5.816;2022-09-27T17:05:54;2.00;;;0.85;;
46643;SDS011;32371;51.032;5.816;2022-09-27T17:08:25;4.35;;;1.00;;
46643;SDS011;32371;51.032;5.816;2022-09-27T17:10:50;1.65;;;0.88;;
46643;SDS011;32371;51.032;5.816;2022-09-27T17:13:15;8.32;;;1.10;;
46643;SDS011;32371;51.032;5.816;2022-09-27T17:15:41;2.58;;;0.60;;
46643;SDS011;32371;51.032;5.816;2022-09-27T17:18:06;5.13;;;1.10;;
46643;SDS011;32371;51.032;5.816;2022-09-27T17:20:32;3.72;;;1.02;;
46643;SDS011;32371;51.032;5.816;2022-09-27T17:22:57;2.80;;;1.10;;
46643;SDS011;32371;51.032;5.816;2022-09-27T17:25:23;5.60;;;1.75;;
46643;SDS011;32371;51.032;5.816;2022-09-27T17:27:48;2.63;;;0.90;;
46643;SDS011;32371;51.032;5.816;2022-09-27T17:30:13;3.40;;;1.10;;
46643;SDS011;32371;51.032;5.816;2022-09-27T17:32:39;0.93;;;0.45;;
46643;SDS011;32371;51.032;5.816;2022-09-27T17:35:04;1.58;;;1.00;;
46643;SDS011;32371;51.032;5.816;2022-09-27T17:37:32;2.80;;;0.80;;
46643;SDS011;32371;51.032;5.816;2022-09-27T17:39:57;2.45;;;0.85;;
46643;SDS011;32371;51.032;5.816;2022-09-27T17:42:22;3.28;;;0.95;;
46643;SDS011;32371;51.032;5.816;2022-09-27T17:44:49;0.85;;;0.65;;
46643;SDS011;32371;51.032;5.816;2022-09-27T17:47:14;5.03;;;1.13;;
46643;SDS011;32371;51.032;5.816;2022-09-27T17:49:58;5.70;;;0.80;;
46643;SDS011;32371;51.032;5.816;2022-09-27T17:52:42;2.65;;;0.85;;
46643;SDS011;32371;51.032;5.816;2022-09-27T17:55:08;2.60;;;1.50;;
46643;SDS011;32371;51.032;5.816;2022-09-27T17:57:33;2.28;;;0.77;;
46643;SDS011;32371;51.032;5.816;2022-09-27T17:59:58;3.10;;;0.82;;
46643;SDS011;32371;51.032;5.816;2022-09-27T18:02:24;4.05;;;0.90;;
46643;SDS011;32371;51.032;5.816;2022-09-27T18:04:50;1.40;;;0.80;;
46643;SDS011;32371;51.032;5.816;2022-09-27T18:07:15;2.63;;;0.90;;